Aberkenfig, United Kingdom
Current Conditions -  °F | °C
As of 4:50 AM on Thursday 27 Nov 2014 (Local Time) from EGDX Reporting Station
Moderate Fog Moderate Fog  
Wind Chill: 40°   Ceiling: 1000
Heat Index: 43°   Visibility: 0.5mi
Dew Point: 41°   Wind: 5mph
Humidity: 93%   Direction: 20°NNE
Pressure: 29.62"   Gusts: NA
Location:  51.54°N, 3.6°W
Report Text: EGDX 270450Z AUTO 02004KT 0800 FG FEW002/// BKN010/// 06/05 Q1003
Loading
Personal Weather Stations






























Interactive Weather Map New forecast layout! Learn more

10-Day Weather Forecast

Advertisements
Track Severe Weather on mobile